Погода Урупесна 2 недели

Сан-Паулу, Бразилия

16 - 28 июня
  • 16июня
    Сегодня
    +18°
    +31°
    Ясно и безоблачно
    ВремяПогодаТемператураВлажностьДавлениеВетер, м/сВероятность осадков
    00:00Ясно и безоблачно+22°C53 %725 мм2.8 м/с5 %
    03:00Ясно и безоблачно+21°C59 %724 мм2.5 м/с5 %
    06:00Ясно и безоблачно+20°C64 %724 мм3.4 м/с5 %
    09:00Ясно и безоблачно+23°C54 %726 мм3.3 м/с5 %
    12:00Ясно и безоблачно+28°C35 %725 мм4.2 м/с5 %
    15:00Ясно и безоблачно+30°C33 %723 мм2.7 м/с5 %
    18:00Ясно и безоблачно+27°C45 %723 мм2.3 м/с5 %
    21:00Ясно и безоблачно+23°C49 %723 мм2.5 м/с5 %
  • 17июня
    Понедельник
    +17°
    +31°
    Ясно и безоблачно
    ВремяПогодаТемператураВлажностьДавлениеВетер, м/сВероятность осадков
    00:00Ясно и безоблачно+22°C49 %723 мм2.4 м/с5 %
    03:00Ясно и безоблачно+21°C52 %722 мм3.2 м/с5 %
    06:00Ясно и безоблачно+19°C63 %722 мм3.1 м/с5 %
    09:00Ясно и безоблачно+23°C55 %724 мм3.2 м/с5 %
    12:00Ясно и безоблачно+28°C35 %723 мм4.2 м/с5 %
    15:00Ясно и безоблачно+30°C30 %721 мм2.3 м/с5 %
    18:00Ясно и безоблачно+28°C42 %721 мм2.3 м/с5 %
    21:00Ясно и безоблачно+24°C37 %721 мм2.9 м/с5 %
  • 18июня
    Вторник
    +19°
    +31°
    Небольшая облачность
    ВремяПогодаТемператураВлажностьДавлениеВетер, м/сВероятность осадков
    00:00Ясно и безоблачно+22°C43 %721 мм3.4 м/с5 %
    03:00Ясно и безоблачно+20°C51 %721 мм3.3 м/с5 %
    06:00Ясно и безоблачно+19°C58 %721 мм2.9 м/с5 %
    09:00Ясно и безоблачно+22°C50 %723 мм2.9 м/с5 %
    12:00Небольшая облачность+28°C27 %723 мм3.8 м/с5 %
    15:00Небольшая облачность+30°C24 %721 мм2.3 м/с5 %
    18:00Небольшая облачность+29°C30 %721 мм1.1 м/с5 %
    21:00Ясно и безоблачно+23°C42 %722 мм2.5 м/с5 %
  • 19июня
    Среда
    +19°
    +31°
    Небольшая облачность
    ВремяПогодаТемператураВлажностьДавлениеВетер, м/сВероятность осадков
    00:00Ясно и безоблачно+21°C43 %722 мм2.5 м/с5 %
    03:00Ясно и безоблачно+20°C44 %721 мм2.9 м/с5 %
    06:00Ясно и безоблачно+19°C55 %722 мм3.3 м/с5 %
    09:00Ясно и безоблачно+22°C48 %724 мм3.0 м/с5 %
    12:00Ясно и безоблачно+29°C28 %724 мм4.6 м/с5 %
    15:00Небольшая облачность+31°C26 %721 мм2.5 м/с5 %
    18:00Практически безоблачно+29°C37 %721 мм2.0 м/с5 %
    21:00Ясно и безоблачно+24°C42 %722 мм2.2 м/с5 %
Мы используем cookies
Соглашаюсь